Time;durP1;ratioP1;P1;durP2;ratioP2;P2;SDS_P1;SDS_P2;PMS_P1;PMS_P2;Temp;Humidity;BMP_temperature;BMP_pressure;BME280_temperature;BME280_humidity;BME280_pressure;Samples;Min_cycle;Max_cycle;Signal;HPM_P1;HPM_P2
2023/02/10 00:00:19;;;;;;;;;;;17.50;60.20;;;;;;5039277;28;1256;-69
2023/02/10 00:02:44;;;;;;;;;;;17.40;60.10;;;;;;5036352;28;999;-69
2023/02/10 00:05:10;;;;;;;;;;;17.40;60.10;;;;;;5040007;28;972;-69
2023/02/10 00:07:35;;;;;;;;;;;17.40;60.10;;;;;;5039630;28;1910;-68
2023/02/10 00:10:01;;;;;;;;;;;17.40;60.20;;;;;;5035850;28;1268;-68
2023/02/10 00:12:26;;;;;;;;;;;17.40;60.10;;;;;;5038380;28;797;-69
2023/02/10 00:14:52;;;;;;;;;;;17.40;60.10;;;;;;5039765;28;804;-69
2023/02/10 00:17:18;;;;;;;;;;;17.40;60.10;;;;;;5038448;28;891;-69
2023/02/10 00:19:44;;;;;;;;;;;17.40;60.20;;;;;;5039946;28;1278;-69
2023/02/10 00:22:09;;;;;;;;;;;17.40;60.20;;;;;;5040722;28;772;-69
2023/02/10 00:24:35;;;;;;;;;;;17.40;60.20;;;;;;5042642;28;946;-69
2023/02/10 00:27:01;;;;;;;;;;;17.40;60.20;;;;;;5036939;28;984;-68
2023/02/10 00:29:26;;;;;;;;;;;17.40;60.20;;;;;;5071112;28;1902;-69
2023/02/10 00:31:52;;;;;;;;;;;17.40;60.20;;;;;;5041566;28;864;-69
2023/02/10 00:34:18;;;;;;;;;;;17.40;60.20;;;;;;5071746;28;1300;-68
2023/02/10 00:36:43;;;;;;;;;;;17.40;60.20;;;;;;5039704;28;1303;-69
2023/02/10 00:39:14;;;;;;;;;;;17.40;60.20;;;;;;5039896;28;1347;-69
2023/02/10 00:41:40;;;;;;;;;;;17.40;60.30;;;;;;5070134;28;812;-69
2023/02/10 00:44:06;;;;;;;;;;;17.40;60.20;;;;;;5038670;28;918;-69
2023/02/10 00:46:31;;;;;;;;;;;17.40;60.20;;;;;;5040721;28;878;-69
2023/02/10 00:48:56;;;;;;;;;;;17.30;60.20;;;;;;5038752;28;1938;-69
2023/02/10 00:51:22;;;;;;;;;;;17.40;60.30;;;;;;5039369;28;1007;-70
2023/02/10 00:53:51;;;;;;;;;;;17.30;60.20;;;;;;5058426;28;1215;-69
2023/02/10 00:56:16;;;;;;;;;;;17.40;60.30;;;;;;5038049;28;1207;-68
2023/02/10 00:58:42;;;;;;;;;;;17.40;60.30;;;;;;5070999;28;867;-68
2023/02/10 01:01:07;;;;;;;;;;;17.40;60.30;;;;;;5042418;28;1303;-69
2023/02/10 01:03:33;;;;;;;;;;;17.30;60.20;;;;;;5071380;28;1491;-68
2023/02/10 01:05:58;;;;;;;;;;;17.40;60.30;;;;;;5040004;28;959;-68
2023/02/10 01:08:24;;;;;;;;;;;17.40;61.10;;;;;;5039819;28;1977;-68
2023/02/10 01:10:49;;;;;;;;;;;17.30;60.30;;;;;;5038386;28;1256;-69
2023/02/10 01:13:15;;;;;;;;;;;17.40;60.30;;;;;;5038037;28;901;-69
2023/02/10 01:15:44;;;;;;;;;;;17.40;60.30;;;;;;5040345;28;903;-68
2023/02/10 01:18:09;;;;;;;;;;;17.40;60.40;;;;;;5038978;28;846;-68
2023/02/10 01:20:37;;;;;;;;;;;17.30;60.30;;;;;;5038994;28;1296;-68
2023/02/10 01:23:02;;;;;;;;;;;17.30;61.10;;;;;;5070444;28;906;-69
2023/02/10 01:25:28;;;;;;;;;;;17.30;60.30;;;;;;5039379;28;928;-69
2023/02/10 01:27:53;;;;;;;;;;;17.30;60.30;;;;;;5035507;28;1906;-68
2023/02/10 01:30:19;;;;;;;;;;;17.30;60.40;;;;;;5041016;28;1251;-68
2023/02/10 01:32:44;;;;;;;;;;;17.30;60.30;;;;;;5039232;28;1030;-68
2023/02/10 01:35:10;;;;;;;;;;;17.30;60.30;;;;;;5037301;28;968;-69
2023/02/10 01:37:37;;;;;;;;;;;17.30;60.30;;;;;;5039571;28;804;-68
2023/02/10 01:40:03;;;;;;;;;;;17.30;60.40;;;;;;5040682;28;1348;-68
2023/02/10 01:42:28;;;;;;;;;;;17.30;60.40;;;;;;5072136;28;844;-69
2023/02/10 01:44:54;;;;;;;;;;;17.30;60.40;;;;;;5069370;28;1643;-69
2023/02/10 01:47:22;;;;;;;;;;;17.30;60.40;;;;;;5037131;28;872;-69
2023/02/10 01:49:48;;;;;;;;;;;17.30;60.40;;;;;;5038454;28;1902;-68
2023/02/10 01:52:33;;;;;;;;;;;17.30;60.40;;;;;;5037673;28;1181;-69
2023/02/10 01:55:05;;;;;;;;;;;17.30;60.40;;;;;;5071128;28;858;-69
2023/02/10 01:57:30;;;;;;;;;;;17.30;60.40;;;;;;5078580;28;879;-68
2023/02/10 01:59:56;;;;;;;;;;;17.30;60.40;;;;;;5071944;28;1259;-69
2023/02/10 02:02:22;;;;;;;;;;;17.30;60.40;;;;;;5071506;28;855;-70
2023/02/10 02:04:47;;;;;;;;;;;17.30;60.40;;;;;;5073445;28;1262;-69
2023/02/10 02:07:13;;;;;;;;;;;17.30;60.40;;;;;;5045235;28;1025;-69
2023/02/10 02:09:38;;;;;;;;;;;17.30;60.40;;;;;;5079603;28;1910;-68
2023/02/10 02:12:10;;;;;;;;;;;17.30;60.40;;;;;;5040431;28;925;-69
2023/02/10 02:14:43;;;;;;;;;;;17.30;60.50;;;;;;5075367;28;844;-69
2023/02/10 02:17:18;;;;;;;;;;;17.20;60.40;;;;;;5072903;28;890;-69
2023/02/10 02:19:49;;;;;;;;;;;17.30;60.50;;;;;;5074363;28;1287;-69
2023/02/10 02:22:33;;;;;;;;;;;17.30;60.50;;;;;;5042568;28;848;-69
2023/02/10 02:24:59;;;;;;;;;;;17.30;60.50;;;;;;5039008;28;864;-69
2023/02/10 02:27:43;;;;;;;;;;;17.30;60.50;;;;;;5041266;28;809;-69
2023/02/10 02:30:18;;;;;;;;;;;17.30;60.50;;;;;;5039926;28;1209;-69
2023/02/10 02:32:46;;;;;;;;;;;17.20;60.40;;;;;;5040295;28;1204;-69
2023/02/10 02:35:13;;;;;;;;;;;17.30;60.50;;;;;;5041201;28;987;-69
2023/02/10 02:37:40;;;;;;;;;;;17.20;60.40;;;;;;5078121;28;895;-70
2023/02/10 02:40:05;;;;;;;;;;;17.20;60.50;;;;;;5073467;28;1261;-69
2023/02/10 02:42:31;;;;;;;;;;;17.30;60.50;;;;;;5041430;28;835;-69
2023/02/10 02:45:06;;;;;;;;;;;17.20;60.40;;;;;;5040216;28;1041;-69
2023/02/10 02:47:31;;;;;;;;;;;17.20;60.50;;;;;;5040487;28;1894;-69
2023/02/10 02:50:16;;;;;;;;;;;17.20;60.50;;;;;;5037892;28;1285;-68
2023/02/10 02:52:41;;;;;;;;;;;17.30;60.60;;;;;;5040207;28;1042;-69
2023/02/10 02:55:07;;;;;;;;;;;17.30;60.50;;;;;;5040734;28;868;-68
2023/02/10 02:57:35;;;;;;;;;;;17.30;60.60;;;;;;5071890;28;938;-68
2023/02/10 03:00:04;;;;;;;;;;;17.20;60.50;;;;;;5037919;28;1240;-69
2023/02/10 03:02:30;;;;;;;;;;;17.20;60.50;;;;;;5073556;28;1195;-69
2023/02/10 03:04:55;;;;;;;;;;;17.20;60.50;;;;;;5072598;28;1281;-69
2023/02/10 03:07:21;;;;;;;;;;;17.20;60.50;;;;;;5073692;28;895;-69
2023/02/10 03:09:46;;;;;;;;;;;17.20;60.50;;;;;;5038528;28;1954;-69
2023/02/10 03:12:12;;;;;;;;;;;17.20;60.50;;;;;;5040975;28;1061;-69
2023/02/10 03:14:38;;;;;;;;;;;17.20;60.50;;;;;;5043105;28;819;-69
2023/02/10 03:17:03;;;;;;;;;;;17.20;60.50;;;;;;5073488;28;809;-69
2023/02/10 03:19:29;;;;;;;;;;;17.20;60.60;;;;;;5042582;28;1294;-69
2023/02/10 03:21:54;;;;;;;;;;;17.20;60.50;;;;;;5040597;28;865;-69
2023/02/10 03:24:19;;;;;;;;;;;17.20;60.60;;;;;;5042777;28;880;-69
2023/02/10 03:26:45;;;;;;;;;;;17.20;60.60;;;;;;5042231;28;860;-68
2023/02/10 03:29:12;;;;;;;;;;;17.20;60.60;;;;;;5039472;28;1963;-69
2023/02/10 03:31:38;;;;;;;;;;;17.20;60.50;;;;;;5071788;28;898;-69
2023/02/10 03:34:03;;;;;;;;;;;17.20;60.50;;;;;;5072426;28;1291;-69
2023/02/10 03:36:28;;;;;;;;;;;17.20;60.50;;;;;;5072178;28;892;-69
2023/02/10 03:38:54;;;;;;;;;;;17.20;60.50;;;;;;5070478;28;813;-69
2023/02/10 03:41:19;;;;;;;;;;;17.20;60.50;;;;;;5040602;28;1192;-68
2023/02/10 03:43:45;;;;;;;;;;;17.20;60.60;;;;;;5038793;28;940;-69
2023/02/10 03:46:10;;;;;;;;;;;17.20;60.50;;;;;;5039305;28;940;-69
2023/02/10 03:48:36;;;;;;;;;;;17.20;60.60;;;;;;5076280;28;1902;-69
2023/02/10 03:51:02;;;;;;;;;;;17.20;60.60;;;;;;5039052;28;1271;-68
2023/02/10 03:53:27;;;;;;;;;;;17.20;60.60;;;;;;5070354;28;955;-69
2023/02/10 03:55:53;;;;;;;;;;;17.20;60.60;;;;;;5040473;28;847;-68
2023/02/10 03:58:18;;;;;;;;;;;17.20;60.60;;;;;;5041271;28;804;-68
2023/02/10 04:00:44;;;;;;;;;;;17.20;60.60;;;;;;5070148;28;1455;-69
2023/02/10 04:03:09;;;;;;;;;;;17.20;60.60;;;;;;5036975;28;999;-69
2023/02/10 04:05:35;;;;;;;;;;;17.20;60.70;;;;;;5039138;28;1713;-69
2023/02/10 04:08:00;;;;;;;;;;;17.20;60.70;;;;;;5069903;28;1943;-69
2023/02/10 04:10:26;;;;;;;;;;;17.20;60.60;;;;;;5038277;28;1325;-69
2023/02/10 04:12:51;;;;;;;;;;;17.20;60.60;;;;;;5040657;28;882;-69
2023/02/10 04:15:17;;;;;;;;;;;17.20;60.60;;;;;;5041382;28;930;-69
2023/02/10 04:17:42;;;;;;;;;;;17.20;60.60;;;;;;5037860;28;851;-69
2023/02/10 04:20:08;;;;;;;;;;;17.20;60.70;;;;;;5037470;28;1295;-69
2023/02/10 04:22:33;;;;;;;;;;;17.20;60.60;;;;;;5041815;28;814;-69
2023/02/10 04:24:59;;;;;;;;;;;17.20;60.70;;;;;;5042209;28;864;-69
2023/02/10 04:27:24;;;;;;;;;;;17.20;60.70;;;;;;5040001;28;1025;-69
2023/02/10 04:29:50;;;;;;;;;;;17.20;60.70;;;;;;5039229;28;1981;-69
2023/02/10 04:32:15;;;;;;;;;;;17.20;60.70;;;;;;5037935;28;892;-68
2023/02/10 04:34:41;;;;;;;;;;;17.20;60.70;;;;;;5037718;28;1796;-69
2023/02/10 04:37:06;;;;;;;;;;;17.20;60.70;;;;;;5071399;28;899;-69
2023/02/10 04:39:32;;;;;;;;;;;17.20;60.60;;;;;;5037370;28;1309;-69
2023/02/10 04:41:57;;;;;;;;;;;17.20;61.30;;;;;;5069065;28;1074;-69
2023/02/10 04:44:22;;;;;;;;;;;17.20;60.50;;;;;;5035393;28;919;-69
2023/02/10 04:46:49;;;;;;;;;;;17.20;60.50;;;;;;5036909;28;968;-68
2023/02/10 04:49:15;;;;;;;;;;;17.30;60.40;;;;;;5041175;28;1981;-69
2023/02/10 04:51:40;;;;;;;;;;;17.30;60.30;;;;;;5039411;28;1326;-69
2023/02/10 04:54:06;;;;;;;;;;;17.40;60.20;;;;;;5040738;28;1014;-69
2023/02/10 04:56:31;;;;;;;;;;;17.40;60.00;;;;;;5037223;28;1204;-69
2023/02/10 04:58:57;;;;;;;;;;;17.40;59.90;;;;;;5038811;28;1353;-69
2023/02/10 05:01:22;;;;;;;;;;;17.50;59.80;;;;;;5038888;28;2086;-69
2023/02/10 05:03:48;;;;;;;;;;;17.50;59.70;;;;;;5036297;28;1906;-68
2023/02/10 05:06:14;;;;;;;;;;;17.50;59.70;;;;;;5039420;28;1316;-67
2023/02/10 05:08:42;;;;;;;;;;;17.60;59.60;;;;;;5071100;28;1965;-70
2023/02/10 05:11:08;;;;;;;;;;;17.60;59.50;;;;;;5069511;28;1248;-69
2023/02/10 05:13:33;;;;;;;;;;;17.60;59.40;;;;;;5071872;28;927;-71
2023/02/10 05:15:59;;;;;;;;;;;17.60;59.30;;;;;;5038796;28;986;-70
2023/02/10 05:18:24;;;;;;;;;;;17.60;59.30;;;;;;5039474;28;842;-71
2023/02/10 05:20:50;;;;;;;;;;;17.60;59.30;;;;;;5039087;28;1251;-70
2023/02/10 05:23:15;;;;;;;;;;;17.70;59.20;;;;;;5037737;28;820;-71
2023/02/10 05:25:41;;;;;;;;;;;17.70;59.20;;;;;;5070390;28;876;-70
2023/02/10 05:28:06;;;;;;;;;;;17.70;59.20;;;;;;5040179;28;1918;-70
2023/02/10 05:30:32;;;;;;;;;;;17.70;59.10;;;;;;5038658;28;1249;-68
2023/02/10 05:32:57;;;;;;;;;;;17.70;59.30;;;;;;5039606;28;915;-70
2023/02/10 05:35:23;;;;;;;;;;;17.70;59.00;;;;;;5040393;28;827;-69
2023/02/10 05:37:48;;;;;;;;;;;17.70;59.00;;;;;;5036646;28;940;-68
2023/02/10 05:40:14;;;;;;;;;;;17.80;59.10;;;;;;5037784;28;1303;-68
2023/02/10 05:42:39;;;;;;;;;;;17.80;59.00;;;;;;5036458;28;1058;-71
2023/02/10 05:45:05;;;;;;;;;;;17.80;59.00;;;;;;5036689;28;832;-70
2023/02/10 05:47:30;;;;;;;;;;;17.80;59.00;;;;;;5038463;28;828;-71
2023/02/10 05:49:56;;;;;;;;;;;17.70;58.90;;;;;;5037123;28;1906;-71
2023/02/10 05:52:21;;;;;;;;;;;17.80;58.90;;;;;;5037052;28;950;-71
2023/02/10 05:54:46;;;;;;;;;;;17.80;58.90;;;;;;5038828;28;896;-71
2023/02/10 05:57:12;;;;;;;;;;;17.90;58.80;;;;;;5033877;28;895;-71
2023/02/10 05:59:37;;;;;;;;;;;18.10;58.70;;;;;;5039444;28;1256;-71
2023/02/10 06:02:03;;;;;;;;;;;18.30;58.50;;;;;;5038650;28;1247;-71
2023/02/10 06:04:28;;;;;;;;;;;18.50;58.30;;;;;;5038247;28;1619;-71
2023/02/10 06:06:54;;;;;;;;;;;18.60;57.90;;;;;;5034950;28;1647;-71
2023/02/10 06:09:22;;;;;;;;;;;18.80;57.50;;;;;;5037430;28;1961;-70
2023/02/10 06:11:49;;;;;;;;;;;19.00;57.20;;;;;;5037784;28;863;-71
2023/02/10 06:14:14;;;;;;;;;;;19.10;56.80;;;;;;5038170;28;903;-71
2023/02/10 06:16:39;;;;;;;;;;;19.20;56.50;;;;;;5038745;28;1015;-71
2023/02/10 06:19:05;;;;;;;;;;;19.40;56.30;;;;;;5039686;28;1398;-71
2023/02/10 06:21:30;;;;;;;;;;;19.50;56.00;;;;;;5038735;28;888;-72
2023/02/10 06:23:56;;;;;;;;;;;19.60;55.80;;;;;;5037240;28;855;-70
2023/02/10 06:26:21;;;;;;;;;;;19.70;55.60;;;;;;5036144;28;892;-70
2023/02/10 06:28:47;;;;;;;;;;;19.80;55.40;;;;;;5038042;28;1957;-70
2023/02/10 06:31:12;;;;;;;;;;;19.90;55.20;;;;;;5059687;28;1777;-71
2023/02/10 06:33:38;;;;;;;;;;;20.00;55.10;;;;;;5039470;28;1018;-70
2023/02/10 06:36:05;;;;;;;;;;;20.10;55.00;;;;;;5037854;28;1542;-72
2023/02/10 06:38:31;;;;;;;;;;;20.10;54.80;;;;;;5068991;28;875;-71
2023/02/10 06:40:56;;;;;;;;;;;20.20;54.70;;;;;;5039400;28;1186;-71
2023/02/10 06:43:22;;;;;;;;;;;20.20;54.60;;;;;;5040927;28;820;-71
2023/02/10 06:45:47;;;;;;;;;;;20.20;54.40;;;;;;5042095;28;884;-71
2023/02/10 06:48:13;;;;;;;;;;;20.30;54.30;;;;;;5040537;28;1914;-71
2023/02/10 06:50:39;;;;;;;;;;;20.30;54.30;;;;;;5041339;28;1253;-70
2023/02/10 06:53:04;;;;;;;;;;;20.30;54.30;;;;;;5041608;28;879;-71
2023/02/10 06:55:30;;;;;;;;;;;20.30;54.30;;;;;;5034286;28;4101;-70
2023/02/10 06:57:58;;;;;;;;;;;20.30;54.30;;;;;;5033345;28;4598;-71
2023/02/10 07:00:23;;;;;;;;;;;20.30;54.30;;;;;;5034497;28;4378;-72
2023/02/10 07:02:49;;;;;;;;;;;20.30;54.30;;;;;;5039747;28;3719;-69
2023/02/10 07:05:14;;;;;;;;;;;20.30;54.40;;;;;;5043921;28;1267;-68
2023/02/10 07:07:40;;;;;;;;;;;20.30;54.50;;;;;;5041035;28;1906;-69
2023/02/10 07:10:05;;;;;;;;;;;20.30;54.60;;;;;;5074574;28;1280;-69
2023/02/10 07:12:31;;;;;;;;;;;20.20;54.60;;;;;;5040128;28;966;-69
2023/02/10 07:14:56;;;;;;;;;;;20.20;54.70;;;;;;5040284;28;1304;-69
2023/02/10 07:17:21;;;;;;;;;;;20.20;54.80;;;;;;5040677;28;827;-70
2023/02/10 07:19:47;;;;;;;;;;;20.20;55.00;;;;;;5040186;28;1263;-70
2023/02/10 07:22:12;;;;;;;;;;;20.10;55.10;;;;;;5041432;28;888;-71
2023/02/10 07:24:38;;;;;;;;;;;20.10;55.20;;;;;;5040246;28;914;-71
2023/02/10 07:27:04;;;;;;;;;;;20.10;55.30;;;;;;5036459;28;879;-69
2023/02/10 07:29:29;;;;;;;;;;;20.00;55.40;;;;;;5042194;28;1894;-70
2023/02/10 07:31:55;;;;;;;;;;;20.00;55.50;;;;;;5040998;28;801;-69
2023/02/10 07:34:20;;;;;;;;;;;20.00;55.60;;;;;;5040842;28;976;-73
2023/02/10 07:36:46;;;;;;;;;;;19.90;55.50;;;;;;5072555;28;1043;-70
2023/02/10 07:39:12;;;;;;;;;;;19.90;55.50;;;;;;5075172;28;1279;-71
2023/02/10 07:41:37;;;;;;;;;;;19.90;55.60;;;;;;5040482;28;875;-69
2023/02/10 07:44:03;;;;;;;;;;;19.90;55.60;;;;;;5072461;28;852;-70
2023/02/10 07:46:28;;;;;;;;;;;19.90;55.70;;;;;;5036929;28;911;-71
2023/02/10 07:48:54;;;;;;;;;;;19.80;55.70;;;;;;5043277;28;1977;-70
2023/02/10 07:51:19;;;;;;;;;;;19.80;55.80;;;;;;5070983;28;1555;-71
2023/02/10 07:53:45;;;;;;;;;;;19.80;55.80;;;;;;5037979;28;870;-68
2023/02/10 07:56:13;;;;;;;;;;;19.70;55.90;;;;;;5070244;28;861;-70
2023/02/10 07:58:39;;;;;;;;;;;19.70;55.90;;;;;;5073607;28;1431;-70
2023/02/10 08:01:07;;;;;;;;;;;19.70;56.00;;;;;;5044268;28;1285;-71
2023/02/10 08:03:33;;;;;;;;;;;19.70;56.10;;;;;;5044006;28;1366;-71
2023/02/10 08:05:58;;;;;;;;;;;19.70;56.30;;;;;;5045273;28;1247;-71
2023/02/10 08:08:24;;;;;;;;;;;19.70;56.50;;;;;;5046050;28;1965;-70
2023/02/10 08:10:49;;;;;;;;;;;19.70;56.60;;;;;;5040155;28;1506;-71
2023/02/10 08:13:14;;;;;;;;;;;19.70;56.80;;;;;;5044965;28;1457;-70
2023/02/10 08:15:40;;;;;;;;;;;19.70;56.90;;;;;;5058080;28;1537;-70
2023/02/10 08:18:05;;;;;;;;;;;19.70;57.00;;;;;;5044171;28;1429;-70
2023/02/10 08:20:31;;;;;;;;;;;19.70;57.20;;;;;;5044563;28;1454;-70
2023/02/10 08:22:58;;;;;;;;;;;19.70;57.80;;;;;;5040117;28;1342;-70
2023/02/10 08:25:23;;;;;;;;;;;19.70;57.40;;;;;;5038856;28;878;-70
2023/02/10 08:27:49;;;;;;;;;;;19.70;57.60;;;;;;5039908;28;1902;-69
2023/02/10 08:30:14;;;;;;;;;;;19.70;57.70;;;;;;5042259;28;1333;-69
2023/02/10 08:32:40;;;;;;;;;;;19.70;57.70;;;;;;5038810;28;821;-70
2023/02/10 08:35:05;;;;;;;;;;;19.70;57.80;;;;;;5039644;28;1038;-70
2023/02/10 08:37:31;;;;;;;;;;;19.60;58.10;;;;;;5037800;28;849;-70
2023/02/10 08:39:56;;;;;;;;;;;19.60;57.90;;;;;;5036497;28;1260;-70
2023/02/10 08:42:22;;;;;;;;;;;19.60;58.00;;;;;;5038916;28;841;-70
2023/02/10 08:44:47;;;;;;;;;;;19.60;58.10;;;;;;5038591;28;887;-70
2023/02/10 08:47:14;;;;;;;;;;;19.60;58.70;;;;;;5040250;28;849;-70
2023/02/10 08:49:40;;;;;;;;;;;19.60;58.20;;;;;;5037897;28;1906;-70
2023/02/10 08:52:05;;;;;;;;;;;19.60;58.20;;;;;;5073738;28;825;-70
2023/02/10 08:54:31;;;;;;;;;;;19.60;58.30;;;;;;5040165;28;895;-70
2023/02/10 08:56:56;;;;;;;;;;;19.60;58.30;;;;;;5072597;28;1002;-69
2023/02/10 08:59:22;;;;;;;;;;;19.60;58.90;;;;;;5037562;28;1283;-69
2023/02/10 09:01:47;;;;;;;;;;;19.60;59.00;;;;;;5073042;28;842;-70
2023/02/10 09:04:16;;;;;;;;;;;19.60;59.00;;;;;;5035253;28;2030;-69
2023/02/10 09:06:43;;;;;;;;;;;19.60;59.00;;;;;;5067003;28;1977;-70
2023/02/10 09:09:12;;;;;;;;;;;19.60;59.00;;;;;;5040885;28;1906;-69
2023/02/10 09:11:37;;;;;;;;;;;19.60;59.00;;;;;;5059912;28;1336;-69
2023/02/10 09:14:03;;;;;;;;;;;19.60;59.00;;;;;;5035551;28;842;-69
2023/02/10 09:16:28;;;;;;;;;;;19.60;59.00;;;;;;5035068;28;904;-69
2023/02/10 09:18:54;;;;;;;;;;;19.60;59.10;;;;;;5036302;28;920;-70
2023/02/10 09:21:19;;;;;;;;;;;19.60;59.10;;;;;;5040677;28;1227;-69
2023/02/10 09:23:45;;;;;;;;;;;19.60;59.10;;;;;;5037879;28;890;-69
2023/02/10 09:26:10;;;;;;;;;;;19.60;59.20;;;;;;5038567;28;959;-69
2023/02/10 09:28:36;;;;;;;;;;;19.60;59.30;;;;;;5040246;28;1949;-69
2023/02/10 09:31:03;;;;;;;;;;;19.60;59.40;;;;;;5037560;28;1228;-69
2023/02/10 09:33:29;;;;;;;;;;;19.60;59.40;;;;;;5071157;28;1084;-69
2023/02/10 09:35:54;;;;;;;;;;;19.60;59.50;;;;;;5037161;28;1245;-69
2023/02/10 09:38:20;;;;;;;;;;;19.60;59.50;;;;;;5037738;28;1264;-69
2023/02/10 09:40:51;;;;;;;;;;;19.60;59.60;;;;;;5037046;28;1219;-69
2023/02/10 09:43:36;;;;;;;;;;;19.60;59.60;;;;;;5039694;28;829;-69
2023/02/10 09:46:05;;;;;;;;;;;19.50;59.60;;;;;;5071064;28;1549;-69
2023/02/10 09:48:49;;;;;;;;;;;19.60;59.50;;;;;;5071993;28;1972;-70
2023/02/10 09:51:50;;;;;;;;;;;19.60;59.50;;;;;;5038073;28;1349;-70
2023/02/10 09:54:16;;;;;;;;;;;19.60;59.40;;;;;;5040173;28;1604;-68
2023/02/10 09:56:42;;;;;;;;;;;19.60;59.30;;;;;;5036660;28;1182;-70
2023/02/10 09:59:10;;;;;;;;;;;19.60;59.30;;;;;;5073031;28;1233;-70
2023/02/10 10:01:37;;;;;;;;;;;19.60;59.30;;;;;;5070122;28;1184;-70
2023/02/10 10:04:05;;;;;;;;;;;19.60;59.40;;;;;;5068022;28;1634;-71
2023/02/10 10:06:38;;;;;;;;;;;19.60;59.40;;;;;;5067252;28;1192;-72
2023/02/10 10:09:10;;;;;;;;;;;19.60;59.50;;;;;;5069703;28;1925;-70
2023/02/10 10:11:36;;;;;;;;;;;19.60;59.90;;;;;;5039855;28;1180;-70
2023/02/10 10:14:02;;;;;;;;;;;19.60;60.00;;;;;;5037829;28;796;-71
2023/02/10 10:16:34;;;;;;;;;;;19.60;60.10;;;;;;5067168;28;970;-70
2023/02/10 10:19:12;;;;;;;;;;;19.60;60.20;;;;;;5028523;28;1962;-70
2023/02/10 10:21:40;;;;;;;;;;;19.60;60.20;;;;;;5044653;28;1901;-69
2023/02/10 10:24:24;;;;;;;;;;;19.60;60.20;;;;;;5041241;28;1974;-69
2023/02/10 10:26:59;;;;;;;;;;;19.50;60.10;;;;;;5047248;28;1226;-69
2023/02/10 10:29:31;;;;;;;;;;;19.50;60.30;;;;;;5071222;28;2093;-70
2023/02/10 10:31:58;;;;;;;;;;;19.50;60.40;;;;;;5044836;28;1218;-70
2023/02/10 10:34:23;;;;;;;;;;;19.50;60.40;;;;;;5044975;28;2021;-70
2023/02/10 10:36:50;;;;;;;;;;;19.50;60.50;;;;;;5071783;28;1241;-69
2023/02/10 10:39:22;;;;;;;;;;;19.40;60.50;;;;;;5075715;28;1363;-69
2023/02/10 10:41:47;;;;;;;;;;;19.40;60.50;;;;;;5040317;28;917;-69
2023/02/10 10:44:15;;;;;;;;;;;19.40;60.60;;;;;;5039514;28;923;-68
2023/02/10 10:46:43;;;;;;;;;;;19.40;60.40;;;;;;5072145;28;1037;-69
2023/02/10 10:49:09;;;;;;;;;;;19.40;60.50;;;;;;5061938;28;1959;-71
2023/02/10 10:51:34;;;;;;;;;;;19.40;60.60;;;;;;5039320;28;1299;-70
2023/02/10 10:54:00;;;;;;;;;;;19.40;60.60;;;;;;5039920;28;1193;-71
2023/02/10 10:56:33;;;;;;;;;;;19.40;60.70;;;;;;5070840;28;921;-71
2023/02/10 10:58:58;;;;;;;;;;;19.30;60.60;;;;;;5071828;28;1252;-70
2023/02/10 11:01:37;;;;;;;;;;;19.30;60.70;;;;;;5039366;28;960;-71
2023/02/10 11:04:03;;;;;;;;;;;19.30;60.70;;;;;;5071714;28;1259;-70
2023/02/10 11:06:31;;;;;;;;;;;19.30;60.80;;;;;;5036712;28;1092;-70
2023/02/10 11:09:00;;;;;;;;;;;19.30;60.80;;;;;;5071374;28;1956;-69
2023/02/10 11:11:33;;;;;;;;;;;19.30;61.00;;;;;;5037038;28;1160;-70
2023/02/10 11:13:58;;;;;;;;;;;19.30;60.90;;;;;;5070453;28;1092;-70
2023/02/10 11:16:24;;;;;;;;;;;19.20;60.80;;;;;;5069507;28;971;-70
2023/02/10 11:18:59;;;;;;;;;;;19.20;60.80;;;;;;5070817;28;1685;-69
2023/02/10 11:21:35;;;;;;;;;;;19.20;60.90;;;;;;5040344;28;832;-69
2023/02/10 11:24:00;;;;;;;;;;;19.20;61.10;;;;;;5073311;28;888;-69
2023/02/10 11:26:26;;;;;;;;;;;19.20;61.20;;;;;;5039134;28;1014;-71
2023/02/10 11:28:52;;;;;;;;;;;19.10;61.10;;;;;;5074390;28;1894;-70
2023/02/10 11:31:20;;;;;;;;;;;19.10;61.20;;;;;;5040788;28;1180;-70
2023/02/10 11:33:54;;;;;;;;;;;19.10;61.30;;;;;;5042762;28;926;-70
2023/02/10 11:36:27;;;;;;;;;;;19.10;61.30;;;;;;5072957;28;1583;-70
2023/02/10 11:38:58;;;;;;;;;;;19.10;61.40;;;;;;5073438;28;931;-70
2023/02/10 11:41:27;;;;;;;;;;;19.10;61.30;;;;;;5070981;28;867;-70
2023/02/10 11:43:53;;;;;;;;;;;19.10;61.40;;;;;;5040251;28;1084;-70
2023/02/10 11:46:19;;;;;;;;;;;19.10;61.40;;;;;;5043852;28;861;-70
2023/02/10 11:48:51;;;;;;;;;;;19.10;61.50;;;;;;5056539;28;1973;-70
2023/02/10 11:51:18;;;;;;;;;;;19.10;61.30;;;;;;5042527;28;1387;-70
2023/02/10 11:53:44;;;;;;;;;;;19.20;61.30;;;;;;5039557;28;840;-69
2023/02/10 11:56:13;;;;;;;;;;;19.20;61.30;;;;;;5037007;28;887;-69
2023/02/10 11:58:58;;;;;;;;;;;19.20;61.30;;;;;;5073835;28;886;-69
2023/02/10 12:01:26;;;;;;;;;;;19.20;61.30;;;;;;5069295;28;974;-69
2023/02/10 12:04:02;;;;;;;;;;;19.20;61.30;;;;;;5040163;28;1243;-69
2023/02/10 12:06:31;;;;;;;;;;;19.20;61.30;;;;;;5071510;28;1325;-69
2023/02/10 12:08:56;;;;;;;;;;;19.20;61.30;;;;;;5037455;28;2034;-69
2023/02/10 12:11:22;;;;;;;;;;;19.20;61.30;;;;;;5037154;28;1260;-69
2023/02/10 12:13:57;;;;;;;;;;;19.20;61.40;;;;;;5044619;28;1355;-69
2023/02/10 12:16:34;;;;;;;;;;;19.20;61.30;;;;;;5075156;28;825;-70
2023/02/10 12:19:18;;;;;;;;;;;19.20;61.60;;;;;;5073404;28;1249;-70
2023/02/10 12:21:52;;;;;;;;;;;19.20;61.60;;;;;;5041470;28;844;-70
2023/02/10 12:24:21;;;;;;;;;;;19.20;61.70;;;;;;5040209;28;1078;-68
2023/02/10 12:26:46;;;;;;;;;;;19.20;61.60;;;;;;5040108;28;862;-71
2023/02/10 12:29:11;;;;;;;;;;;19.20;62.50;;;;;;5036067;28;1961;-69
2023/02/10 12:31:49;;;;;;;;;;;19.20;61.70;;;;;;5038590;28;840;-69
2023/02/10 12:34:33;;;;;;;;;;;19.20;61.70;;;;;;5038981;28;1403;-69
2023/02/10 12:37:19;;;;;;;;;;;19.20;61.70;;;;;;5038954;28;823;-70
2023/02/10 12:40:07;;;;;;;;;;;19.20;61.80;;;;;;5037680;28;1269;-71
2023/02/10 12:42:35;;;;;;;;;;;19.20;61.80;;;;;;5070058;28;1338;-68
2023/02/10 12:45:07;;;;;;;;;;;19.20;61.70;;;;;;5037812;28;913;-71
2023/02/10 12:47:41;;;;;;;;;;;19.20;61.70;;;;;;5037588;28;974;-71
2023/02/10 12:50:27;;;;;;;;;;;19.20;61.70;;;;;;5038407;28;1960;-71
2023/02/10 12:52:55;;;;;;;;;;;19.20;61.70;;;;;;5070725;28;888;-71
2023/02/10 12:55:30;;;;;;;;;;;19.20;61.80;;;;;;5038086;28;899;-70
2023/02/10 12:57:57;;;;;;;;;;;19.20;61.90;;;;;;5071383;28;976;-70
2023/02/10 13:00:37;;;;;;;;;;;19.10;61.80;;;;;;5067659;28;1273;-69
2023/02/10 13:03:05;;;;;;;;;;;19.10;61.80;;;;;;5068850;28;863;-68
2023/02/10 13:05:32;;;;;;;;;;;19.10;61.70;;;;;;5037131;28;1725;-68
2023/02/10 13:08:00;;;;;;;;;;;19.10;56.60;;;;;;5058393;28;1968;-69
2023/02/10 13:10:43;;;;;;;;;;;19.00;54.30;;;;;;5056590;28;1356;-69
2023/02/10 13:13:28;;;;;;;;;;;18.90;53.10;;;;;;5068733;28;1410;-68
2023/02/10 13:15:56;;;;;;;;;;;18.90;51.40;;;;;;5070800;28;923;-69
2023/02/10 13:18:22;;;;;;;;;;;18.80;51.00;;;;;;5034587;28;858;-69
2023/02/10 13:21:06;;;;;;;;;;;18.70;50.10;;;;;;5040354;28;1239;-69
2023/02/10 13:23:31;;;;;;;;;;;18.60;49.70;;;;;;5038185;28;810;-68
2023/02/10 13:26:06;;;;;;;;;;;18.60;49.20;;;;;;5034513;28;1262;-66
2023/02/10 13:28:51;;;;;;;;;;;18.50;49.10;;;;;;5067783;28;1917;-70
2023/02/10 13:31:35;;;;;;;;;;;18.40;48.80;;;;;;5069618;28;1385;-70
2023/02/10 13:34:19;;;;;;;;;;;18.40;48.30;;;;;;5044200;28;1271;-69
2023/02/10 13:36:47;;;;;;;;;;;18.40;48.10;;;;;;5038719;28;856;-68
2023/02/10 13:39:20;;;;;;;;;;;18.30;47.80;;;;;;5073561;28;1412;-70
2023/02/10 13:41:46;;;;;;;;;;;18.30;48.20;;;;;;5073369;28;957;-71
2023/02/10 13:44:19;;;;;;;;;;;18.20;47.90;;;;;;5069019;28;890;-70
2023/02/10 13:46:46;;;;;;;;;;;18.20;47.90;;;;;;5069871;28;795;-70
2023/02/10 13:49:14;;;;;;;;;;;18.20;47.80;;;;;;5069276;28;1893;-70
2023/02/10 13:51:39;;;;;;;;;;;18.10;47.50;;;;;;5067251;28;1017;-71
2023/02/10 13:54:05;;;;;;;;;;;18.10;47.30;;;;;;5042264;28;881;-69
2023/02/10 13:56:31;;;;;;;;;;;18.10;47.60;;;;;;5072501;28;994;-69
2023/02/10 13:59:03;;;;;;;;;;;18.00;47.30;;;;;;5077077;28;856;-70
2023/02/10 14:01:31;;;;;;;;;;;18.00;46.80;;;;;;5077659;28;825;-69
2023/02/10 14:03:56;;;;;;;;;;;18.00;47.00;;;;;;5043341;28;884;-69
2023/02/10 14:06:31;;;;;;;;;;;17.90;46.80;;;;;;5045169;28;891;-70
2023/02/10 14:09:01;;;;;;;;;;;17.90;46.70;;;;;;5071296;28;1967;-70
2023/02/10 14:11:29;;;;;;;;;;;17.90;46.60;;;;;;5043608;28;1539;-71
2023/02/10 14:14:15;;;;;;;;;;;17.90;46.50;;;;;;5077916;28;824;-70
2023/02/10 14:16:40;;;;;;;;;;;17.80;46.50;;;;;;5073777;28;1363;-70
2023/02/10 14:19:17;;;;;;;;;;;17.80;46.40;;;;;;5074168;28;1260;-70
2023/02/10 14:21:43;;;;;;;;;;;17.80;46.30;;;;;;5072640;28;1251;-70
2023/02/10 14:24:15;;;;;;;;;;;17.80;46.30;;;;;;5075937;28;1083;-71
2023/02/10 14:26:42;;;;;;;;;;;17.70;46.10;;;;;;5074654;28;1021;-69
2023/02/10 14:29:09;;;;;;;;;;;17.70;46.00;;;;;;5075420;28;1906;-70
2023/02/10 14:31:35;;;;;;;;;;;17.70;46.00;;;;;;5073869;28;986;-69
2023/02/10 14:34:02;;;;;;;;;;;17.70;45.80;;;;;;5039227;28;1308;-71
2023/02/10 14:36:27;;;;;;;;;;;17.60;45.40;;;;;;5044012;28;1851;-69
2023/02/10 14:38:54;;;;;;;;;;;17.60;45.50;;;;;;5048071;28;1157;-70